Impacts METAR Board INFO
IDs:

KANB - Anniston Metro, AL, US

Updated at: 0557 UTC 25 Feb 2018
Potential Impact None Slight Moderate High
Time24/17Z 24/18Z 24/19Z 24/20Z 24/21Z 24/22Z 24/23Z 25/00Z 25/01Z 25/02Z 25/03Z 25/04Z 25/05Z
VIS10 10 10 10 10 10 10 10 10 10 10 10 10
CIG-- 100 85 43 -- -- 80 85 -- -- 85 -- --
CoverCLRBKNBKNBKNSCTFEWBKNBKNCLRFEWOVCFEWSCT
FltCatVFRVFRVFRVFRVFRVFRVFRVFRVFRVFRVFRVFRVFR
WX--------------------------
WDir240200170180190200190170180200200190210
WSpd11 9 12 11 12 11 7 6 4 10 8 9 10
WGst17 -- 17 -- -- 19 -- -- -- -- 17 16 21
Raw hourly METARs
KANB 241653Z AUTO 24011G17KT 10SM CLR 25/15 A3015 RMK AO2 SLP202 T02500150
KANB 241753Z AUTO 20009KT 10SM SCT045 BKN100 24/14 A3012 RMK AO2 SLP194 T02440144 10250 20189 58017
KANB 241853Z AUTO 17012G17KT 10SM FEW043 BKN085 25/14 A3008 RMK AO2 SLP179 T02500144
KANB 241953Z AUTO 18011KT 10SM BKN043 BKN085 24/15 A3006 RMK AO2 SLP173 T02440150
KANB 242053Z AUTO 19012KT 10SM SCT048 SCT090 SCT110 25/14 A3004 RMK AO2 SLP164 T02500144 56028
KANB 242153Z AUTO 20011G19KT 10SM FEW049 25/15 A3002 RMK AO2 SLP158 T02500150
KANB 242253Z AUTO 19007KT 10SM BKN080 24/15 A3001 RMK AO2 SLP154 T02440150
KANB 242353Z AUTO 17006KT 10SM BKN085 23/15 A3000 RMK AO2 SLP154 T02330150 10250 20233 56011
KANB 250053Z AUTO 18004KT 10SM CLR 23/15 A3001 RMK AO2 SLP155 T02280150
KANB 250153Z AUTO 20010KT 10SM FEW100 23/16 A3001 RMK AO2 SLP156 T02280156
KANB 250253Z AUTO 20008G17KT 10SM OVC085 23/15 A3002 RMK AO2 SLP157 T02280150 53004
KANB 250353Z AUTO 19009G16KT 10SM FEW095 22/16 A3003 RMK AO2 SLP163 T02220156
KANB 250453Z AUTO 21010G21KT 10SM SCT095 22/16 A3004 RMK AO2 SLP163 T02170161